Portada
METAR-TAF:

METAR-TAF

Aeropuertos :

Base Aérea de Morón

Morón de la Frontera, España

latitud: 37-09N, longitud: 005-37W, altitud: 87 m

Observación

El informe se hizo hace 43 minutos, a las 16:30 UTC
Viento 11 kt del este, variando entre este-noreste y este-sureste
Temperatura 30°C
Humedad 19%
Presión 1018 hPa
Visibilidad 10 km o más
sin nubes por debajo de 1500 m y sin presencia de cumulonimbus.

METAR: LEMO 261630Z 09011KT 060V120 CAVOK 30/04 Q1018 NOSIG

Hora: 19:13 (17:13 UTC)

Pronóstico

El informe se hizo hace 3 horas y 13 minutos, a las 14:00 UTC
Pronóstico válido del 26 a las 15 UTC al 27 a las 15 UTC
Viento 10 kt del este
Visibilidad 10 km o más
sin nubes por debajo de 1500 m y sin presencia de cumulonimbus.
Evolucionando progresivamente
del 26 a las 23 UTC al 27 a las 01 UTC
Viento 7 kt del noreste

TAF: LEMO 261400Z 2615/2715 10010KT CAVOK TX34/2715Z TN13/2705Z BECMG 2623/2701 04007KT

Observaciones y pronósticos meteorológicos de más de 4000 aeropuertos (mensajes METAR y TAF).

Los puntos amarillos y rojos representan las estaciones disponibles.

Ponga el ratón en el punto deseado para ver el nombre de la estación.

Haga clic para ver las observaciones y los pronósticos meteorológicos.

Para cambiar el mapa : haga clic en los botones verdes con una cruz de color negro para hacer un zoom, en el botón verde con un guión para alejar o en las flechas verdes para mapas adyacentes.


METAR-TAF: